Time;durP1;ratioP1;P1;durP2;ratioP2;P2;SDS_P1;SDS_P2;PMS_P1;PMS_P2;Temp;Humidity;BMP_temperature;BMP_pressure;BME280_temperature;BME280_humidity;BME280_pressure;Samples;Min_cycle;Max_cycle;Signal;HPM_P1;HPM_P2
2023/03/15 00:03:38;;;;;;;6.77;1.47;;;1.20;99.90;;;;;;8363665;28;20181;-62
2023/03/15 00:07:40;;;;;;;9.10;1.50;;;1.20;99.90;;;;;;8362480;28;20177;-64
2023/03/15 00:11:41;;;;;;;10.10;1.83;;;1.00;99.90;;;;;;8359541;28;20279;-63
2023/03/15 00:15:49;;;;;;;6.33;1.00;;;1.00;99.90;;;;;;8360549;28;20210;-63
2023/03/15 00:19:50;;;;;;;4.13;1.40;;;0.90;99.90;;;;;;8356710;28;20182;-64
2023/03/15 00:23:51;;;;;;;3.77;1.40;;;0.80;99.90;;;;;;8362045;28;20220;-63
2023/03/15 00:27:52;;;;;;;4.90;1.40;;;0.80;99.90;;;;;;8359514;28;20334;-63
2023/03/15 00:31:53;;;;;;;3.00;1.30;;;0.60;99.90;;;;;;8363415;28;20190;-65
2023/03/15 00:35:54;;;;;;;7.20;1.37;;;0.60;99.90;;;;;;8369118;28;20220;-63
2023/03/15 00:39:54;;;;;;;5.50;1.60;;;0.50;99.90;;;;;;8366912;28;20282;-62
2023/03/15 00:43:55;;;;;;;7.63;1.90;;;0.40;99.90;;;;;;8366683;28;20307;-63
2023/03/15 00:47:56;;;;;;;6.83;1.63;;;0.40;99.90;;;;;;8372187;28;20186;-64
2023/03/15 00:51:57;;;;;;;8.40;1.50;;;0.40;99.90;;;;;;8367938;28;20205;-63
2023/03/15 00:55:59;;;;;;;8.70;1.60;;;0.40;99.90;;;;;;8378940;28;20213;-64
2023/03/15 01:00:05;;;;;;;5.43;1.30;;;0.40;99.90;;;;;;8362724;28;20268;-63
2023/03/15 01:04:06;;;;;;;8.60;1.53;;;0.40;99.90;;;;;;8369736;28;20185;-63
2023/03/15 01:08:07;;;;;;;7.20;1.73;;;0.40;99.90;;;;;;8367341;28;20201;-62
2023/03/15 01:12:08;;;;;;;9.57;1.70;;;0.40;99.90;;;;;;8368940;28;20190;-63
2023/03/15 01:16:10;;;;;;;9.13;1.97;;;0.40;99.90;;;;;;8362012;28;20235;-63
2023/03/15 01:20:13;;;;;;;7.03;1.80;;;0.40;99.90;;;;;;8366806;28;20212;-63
2023/03/15 01:24:14;;;;;;;8.77;1.77;;;0.40;99.90;;;;;;8366915;28;20182;-62
2023/03/15 01:28:15;;;;;;;7.40;1.60;;;0.30;99.90;;;;;;8367436;28;20188;-63
2023/03/15 01:32:16;;;;;;;6.43;1.77;;;0.30;99.90;;;;;;8362242;28;20186;-63
2023/03/15 01:36:17;;;;;;;7.73;1.30;;;0.40;99.90;;;;;;8360802;28;20335;-63
2023/03/15 01:40:18;;;;;;;6.10;1.20;;;0.40;99.90;;;;;;8361577;28;20271;-63
2023/03/15 01:44:20;;;;;;;4.87;1.77;;;0.30;99.90;;;;;;8363305;28;20197;-64
2023/03/15 01:48:43;;;;;;;9.17;1.67;;;0.30;99.90;;;;;;8363395;28;20699;-63
2023/03/15 01:52:44;;;;;;;6.60;1.73;;;0.20;99.90;;;;;;8364334;28;20201;-64
2023/03/15 01:56:51;;;;;;;8.47;1.57;;;0.10;99.90;;;;;;8362730;28;20210;-62
2023/03/15 02:00:52;;;;;;;7.50;2.07;;;0.00;99.90;;;;;;8365159;28;20224;-62
2023/03/15 02:05:08;;;;;;;5.67;1.40;;;-0.10;99.90;;;;;;8361293;28;20189;-62
2023/03/15 02:09:13;;;;;;;2.23;1.10;;;-0.10;99.90;;;;;;8363502;28;20178;-62
2023/03/15 02:13:18;;;;;;;4.07;1.40;;;-0.20;99.90;;;;;;8364107;28;20190;-62
2023/03/15 02:17:24;;;;;;;4.10;1.17;;;-0.20;99.90;;;;;;8366169;28;21045;-62
2023/03/15 02:21:42;;;;;;;4.97;1.67;;;-0.20;99.90;;;;;;8366396;28;20315;-63
2023/03/15 02:26:20;;;;;;;10.30;1.53;;;-0.30;99.90;;;;;;8368579;28;20185;-64
2023/03/15 02:30:21;;;;;;;5.50;1.40;;;-0.30;99.90;;;;;;8364865;28;20247;-63
2023/03/15 02:34:24;;;;;;;8.47;2.07;;;-0.30;99.90;;;;;;8363959;28;20464;-62
2023/03/15 02:38:24;;;;;;;7.80;1.63;;;-0.40;99.90;;;;;;8367905;28;20209;-62
2023/03/15 02:42:26;;;;;;;9.33;1.90;;;-0.20;99.90;;;;;;8364594;28;20200;-61
2023/03/15 02:46:27;;;;;;;4.30;1.40;;;-0.10;99.90;;;;;;8359956;28;20189;-62
2023/03/15 02:50:28;;;;;;;5.73;1.03;;;0.00;99.90;;;;;;8358206;28;20184;-62
2023/03/15 02:54:28;;;;;;;6.60;1.53;;;0.00;99.90;;;;;;8361361;28;20216;-62
2023/03/15 02:58:31;;;;;;;10.30;1.77;;;0.00;99.90;;;;;;8359034;28;20181;-61
2023/03/15 03:02:32;;;;;;;9.07;1.70;;;0.00;99.90;;;;;;8360675;28;20179;-62
2023/03/15 03:06:33;;;;;;;9.63;1.53;;;-0.10;99.90;;;;;;8356529;28;20224;-63
2023/03/15 03:10:33;;;;;;;4.57;1.17;;;-0.20;99.90;;;;;;8360524;28;20184;-64
2023/03/15 03:14:34;;;;;;;15.87;1.97;;;-0.30;99.90;;;;;;8361114;28;20201;-64
2023/03/15 03:18:35;;;;;;;5.17;1.50;;;-0.40;99.90;;;;;;8368900;28;20185;-62
2023/03/15 03:22:37;;;;;;;6.00;1.47;;;-0.50;99.90;;;;;;8364756;28;20210;-62
2023/03/15 03:26:37;;;;;;;6.20;2.10;;;-0.50;99.90;;;;;;8364221;28;20194;-62
2023/03/15 03:30:38;;;;;;;7.37;1.57;;;-0.60;99.90;;;;;;8361943;28;20184;-68
2023/03/15 03:34:39;;;;;;;4.93;1.20;;;-0.70;99.90;;;;;;8362217;28;20214;-62
2023/03/15 03:38:42;;;;;;;5.27;1.33;;;-0.70;99.90;;;;;;8356637;28;20292;-62
2023/03/15 03:42:42;;;;;;;7.40;1.60;;;-0.70;99.90;;;;;;8357235;28;20448;-62
2023/03/15 03:46:43;;;;;;;2.97;1.27;;;-0.70;99.90;;;;;;8361501;28;20311;-63
2023/03/15 03:50:44;;;;;;;9.17;1.20;;;-0.70;99.90;;;;;;8365281;28;20218;-62
2023/03/15 03:54:45;;;;;;;7.33;1.57;;;-0.70;99.90;;;;;;8362409;28;20208;-62
2023/03/15 03:58:45;;;;;;;9.07;1.37;;;-0.70;99.90;;;;;;8361582;28;20178;-62
2023/03/15 04:02:46;;;;;;;6.67;1.30;;;-0.70;99.90;;;;;;8361814;28;20186;-62
2023/03/15 04:06:49;;;;;;;6.87;1.30;;;-0.70;99.90;;;;;;8361012;28;20270;-62
2023/03/15 04:10:55;;;;;;;8.43;1.67;;;-0.80;99.90;;;;;;8367481;28;20184;-62
2023/03/15 04:14:56;;;;;;;8.53;1.50;;;-0.80;99.90;;;;;;8373049;28;20272;-62
2023/03/15 04:18:57;;;;;;;5.53;1.10;;;-0.80;99.90;;;;;;8365584;28;20203;-61
2023/03/15 04:22:58;;;;;;;10.90;1.30;;;-0.70;99.90;;;;;;8366951;28;20192;-65
2023/03/15 04:26:59;;;;;;;5.20;1.53;;;-0.60;99.90;;;;;;8371696;28;20185;-62
2023/03/15 04:31:00;;;;;;;4.67;1.67;;;-0.60;99.90;;;;;;8371824;28;20182;-63
2023/03/15 04:35:01;;;;;;;6.50;1.50;;;-0.50;99.90;;;;;;8362297;28;20220;-61
2023/03/15 04:39:05;;;;;;;5.77;1.20;;;-0.60;99.90;;;;;;8384451;28;20180;-62
2023/03/15 04:43:07;;;;;;;5.80;1.73;;;-0.70;99.90;;;;;;8363187;28;20204;-64
2023/03/15 04:47:08;;;;;;;5.23;1.23;;;-0.70;99.90;;;;;;8366153;28;20183;-62
2023/03/15 04:51:09;;;;;;;6.43;1.60;;;-0.80;99.90;;;;;;8363016;28;20191;-62
2023/03/15 04:55:11;;;;;;;3.87;1.30;;;-0.80;99.90;;;;;;8373613;28;20212;-62
2023/03/15 04:59:11;;;;;;;7.87;1.83;;;-0.70;99.90;;;;;;8365204;28;20420;-62
2023/03/15 05:03:12;;;;;;;9.90;1.27;;;-0.60;99.90;;;;;;8363242;28;20462;-62
2023/03/15 05:07:13;;;;;;;9.57;1.50;;;-0.60;99.90;;;;;;8366076;28;20191;-62
2023/03/15 05:11:14;;;;;;;6.33;1.60;;;-0.60;99.90;;;;;;8364853;28;20188;-62
2023/03/15 05:15:15;;;;;;;8.37;1.30;;;-0.60;99.90;;;;;;8362785;28;20225;-63
2023/03/15 05:19:16;;;;;;;3.83;1.40;;;-0.60;99.90;;;;;;8365250;28;20187;-61
2023/03/15 05:23:16;;;;;;;5.20;1.53;;;-0.70;99.90;;;;;;8368473;28;20185;-68
2023/03/15 05:27:17;;;;;;;6.33;1.90;;;-0.70;99.90;;;;;;8364328;28;20492;-68
2023/03/15 05:31:18;;;;;;;3.53;1.07;;;-0.60;99.90;;;;;;8363213;28;20220;-67
2023/03/15 05:35:19;;;;;;;5.60;1.70;;;-0.60;99.90;;;;;;8367289;28;20208;-67
2023/03/15 05:39:21;;;;;;;5.43;1.93;;;-0.60;99.90;;;;;;8367296;28;20508;-69
2023/03/15 05:43:22;;;;;;;5.80;1.30;;;-0.60;99.90;;;;;;8365825;28;20192;-69
2023/03/15 05:47:23;;;;;;;6.63;1.30;;;-0.60;99.90;;;;;;8365151;28;20198;-68
2023/03/15 05:51:24;;;;;;;3.60;1.03;;;-0.60;99.90;;;;;;8362560;28;20411;-68
2023/03/15 05:55:25;;;;;;;3.50;1.33;;;-0.70;99.90;;;;;;8364384;28;20219;-68
2023/03/15 05:59:26;;;;;;;7.20;1.80;;;-0.70;99.90;;;;;;8365416;28;20188;-71
2023/03/15 06:03:27;;;;;;;7.77;1.70;;;-0.70;99.90;;;;;;8368011;28;20186;-68
2023/03/15 06:07:28;;;;;;;6.47;1.57;;;-0.70;99.90;;;;;;8367969;28;20469;-69
2023/03/15 06:11:29;;;;;;;4.40;1.67;;;-0.70;99.90;;;;;;8365449;28;20181;-69
2023/03/15 06:15:29;;;;;;;4.43;1.53;;;-0.60;99.90;;;;;;8361633;28;20331;-68
2023/03/15 06:19:30;;;;;;;8.27;2.03;;;-0.60;99.90;;;;;;8362020;28;20185;-69
2023/03/15 06:23:31;;;;;;;7.37;1.50;;;-0.50;99.90;;;;;;8361384;28;20193;-69
2023/03/15 06:27:32;;;;;;;4.40;1.67;;;-0.50;99.90;;;;;;8363530;28;20200;-68
2023/03/15 06:31:33;;;;;;;8.80;1.60;;;-0.40;99.90;;;;;;8361572;28;20260;-69
2023/03/15 06:35:33;;;;;;;3.97;1.40;;;-0.30;99.90;;;;;;8360242;28;20299;-68
2023/03/15 06:39:34;;;;;;;6.60;1.53;;;-0.30;99.90;;;;;;8362442;28;20231;-69
2023/03/15 06:43:35;;;;;;;6.30;1.27;;;-0.20;99.90;;;;;;8365859;28;20201;-70
2023/03/15 06:47:36;;;;;;;4.77;1.63;;;-0.10;99.90;;;;;;8361010;28;20304;-70
2023/03/15 06:51:37;;;;;;;6.90;1.37;;;0.20;99.90;;;;;;8361027;28;20613;-69
2023/03/15 06:55:38;;;;;;;6.93;1.57;;;0.40;99.90;;;;;;8359964;28;20306;-69
2023/03/15 06:59:39;;;;;;;9.67;1.63;;;0.70;99.90;;;;;;8369180;28;20192;-70
2023/03/15 07:03:40;;;;;;;6.90;1.70;;;1.00;46.40;;;;;;8364823;28;20375;-69
2023/03/15 07:07:41;;;;;;;4.37;1.50;;;1.30;1.00;;;;;;8363364;28;20181;-70
2023/03/15 07:11:42;;;;;;;5.67;1.40;;;1.50;1.00;;;;;;8361228;28;20647;-70
2023/03/15 07:15:43;;;;;;;8.93;1.33;;;1.50;1.00;;;;;;8361566;28;20200;-69
2023/03/15 07:19:44;;;;;;;3.27;1.10;;;1.50;1.00;;;;;;8359696;28;20188;-71
2023/03/15 07:23:44;;;;;;;7.00;1.50;;;1.70;1.00;;;;;;8364595;28;20189;-69
2023/03/15 07:27:45;;;;;;;4.60;1.80;;;1.90;99.90;;;;;;8362125;28;20189;-70
2023/03/15 07:31:46;;;;;;;8.00;1.53;;;2.10;99.90;;;;;;8361638;28;20280;-70
2023/03/15 07:35:48;;;;;;;4.63;1.20;;;2.30;99.90;;;;;;8366199;28;20247;-70
2023/03/15 07:39:49;;;;;;;8.00;1.53;;;2.40;1.00;;;;;;8363626;28;20242;-69
2023/03/15 07:43:50;;;;;;;5.90;1.30;;;2.50;29.90;;;;;;8358906;28;20196;-69
2023/03/15 07:47:51;;;;;;;6.63;1.77;;;2.60;1.00;;;;;;8361202;28;20205;-69
2023/03/15 07:51:52;;;;;;;6.03;1.50;;;2.60;1.00;;;;;;8363318;28;20230;-69
2023/03/15 07:55:53;;;;;;;5.83;1.33;;;2.50;1.00;;;;;;8356886;28;20223;-70
2023/03/15 07:59:54;;;;;;;6.27;1.50;;;2.50;1.00;;;;;;8359849;28;20181;-69
2023/03/15 08:03:54;;;;;;;5.00;1.37;;;2.50;1.00;;;;;;8359677;28;20296;-68
2023/03/15 08:07:55;;;;;;;7.33;1.47;;;2.50;1.00;;;;;;8362390;28;20189;-69
2023/03/15 08:11:56;;;;;;;5.90;1.50;;;2.60;1.00;;;;;;8362149;28;20209;-69
2023/03/15 08:15:57;;;;;;;4.47;1.50;;;2.80;1.00;;;;;;8356660;28;20205;-68
2023/03/15 08:19:58;;;;;;;8.77;1.57;;;3.10;1.00;;;;;;8360492;28;20173;-69
2023/03/15 08:23:59;;;;;;;3.93;1.20;;;3.30;1.00;;;;;;8359083;28;20208;-69
2023/03/15 08:28:00;;;;;;;4.03;1.20;;;3.40;99.90;;;;;;8361232;28;20287;-69
2023/03/15 08:32:01;;;;;;;6.27;1.63;;;3.50;99.90;;;;;;8361012;28;20193;-70
2023/03/15 08:36:01;;;;;;;4.80;1.07;;;3.60;99.90;;;;;;8359520;28;20212;-69
2023/03/15 08:40:08;;;;;;;5.30;1.47;;;3.80;99.90;;;;;;8359098;28;20380;-70
2023/03/15 08:44:09;;;;;;;5.33;1.57;;;4.00;99.90;;;;;;8358395;28;20343;-68
2023/03/15 08:48:13;;;;;;;6.77;1.57;;;4.10;99.90;;;;;;8360936;28;20185;-70
2023/03/15 08:52:14;;;;;;;4.60;1.03;;;4.40;99.90;;;;;;8363693;28;20321;-69
2023/03/15 08:56:14;;;;;;;7.67;1.40;;;4.50;99.90;;;;;;8362955;28;20330;-69
2023/03/15 09:00:19;;;;;;;9.77;2.03;;;4.60;99.90;;;;;;8372365;28;20220;-69
2023/03/15 09:04:20;;;;;;;8.63;1.27;;;4.80;99.90;;;;;;8365764;28;20225;-69
2023/03/15 09:08:24;;;;;;;5.20;1.43;;;4.90;99.90;;;;;;8366146;28;20200;-68
2023/03/15 09:12:25;;;;;;;6.27;1.60;;;5.00;99.90;;;;;;8369100;28;20207;-69
2023/03/15 09:16:26;;;;;;;3.83;0.90;;;5.40;99.90;;;;;;8365034;28;20209;-70
2023/03/15 09:20:28;;;;;;;7.10;1.80;;;5.70;99.90;;;;;;8367878;28;20185;-69
2023/03/15 09:24:29;;;;;;;4.53;1.10;;;5.80;97.40;;;;;;8364762;28;20216;-69
2023/03/15 09:28:30;;;;;;;4.33;1.20;;;5.70;92.70;;;;;;8367304;28;20193;-69
2023/03/15 09:32:35;;;;;;;4.63;1.47;;;5.50;77.30;;;;;;8367549;28;20196;-69
2023/03/15 09:36:35;;;;;;;2.93;1.20;;;5.60;63.90;;;;;;8365323;28;20259;-69
2023/03/15 09:40:44;;;;;;;4.27;1.20;;;5.50;71.60;;;;;;8365609;28;20181;-69
2023/03/15 09:44:56;;;;;;;6.17;1.53;;;5.70;79.70;;;;;;8364958;28;20209;-69
2023/03/15 09:49:16;;;;;;;8.27;1.40;;;5.70;79.60;;;;;;8363734;28;20523;-69
2023/03/15 09:53:27;;;;;;;5.63;1.20;;;5.80;79.10;;;;;;8370373;28;20193;-70
2023/03/15 09:57:59;;;;;;;10.33;1.90;;;5.80;56.20;;;;;;8365436;28;20191;-69
2023/03/15 10:02:14;;;;;;;6.57;1.37;;;5.70;43.00;;;;;;8365264;28;20183;-69
2023/03/15 10:06:27;;;;;;;6.97;1.43;;;5.60;48.30;;;;;;8380771;28;20189;-69
2023/03/15 10:10:35;;;;;;;6.43;1.23;;;5.70;52.90;;;;;;8363169;28;20288;-67
2023/03/15 10:14:43;;;;;;;7.40;1.60;;;5.90;54.90;;;;;;8361832;28;20211;-68
2023/03/15 10:19:23;;;;;;;4.83;1.47;;;5.80;59.00;;;;;;8378318;28;20194;-68
2023/03/15 10:23:44;;;;;;;7.03;1.13;;;5.70;49.00;;;;;;8362959;28;20185;-68
2023/03/15 10:27:48;;;;;;;4.43;1.17;;;5.50;62.80;;;;;;8361026;28;20252;-67
2023/03/15 10:31:51;;;;;;;6.73;1.40;;;5.90;76.10;;;;;;8363365;28;20202;-68
2023/03/15 10:35:52;;;;;;;6.20;1.30;;;6.50;74.80;;;;;;8363645;28;20217;-67
2023/03/15 10:39:58;;;;;;;6.33;1.43;;;6.90;49.60;;;;;;8364241;28;20207;-68
2023/03/15 10:44:05;;;;;;;6.30;1.30;;;7.30;45.20;;;;;;8363592;28;20206;-68
2023/03/15 10:48:07;;;;;;;5.63;1.40;;;7.00;27.40;;;;;;8363538;28;20208;-69
2023/03/15 10:52:44;;;;;;;3.70;1.10;;;6.60;25.70;;;;;;8363370;28;20282;-68
2023/03/15 10:56:57;;;;;;;5.13;1.57;;;6.10;32.90;;;;;;8323669;28;20281;-69
2023/03/15 11:01:06;;;;;;;4.00;1.63;;;6.40;64.30;;;;;;8360281;28;20194;-69
2023/03/15 11:05:13;;;;;;;4.63;1.60;;;6.40;34.90;;;;;;8365501;28;20197;-70
2023/03/15 11:09:18;;;;;;;4.40;1.50;;;5.90;22.70;;;;;;8366354;28;20201;-69
2023/03/15 11:13:22;;;;;;;5.37;1.23;;;5.90;33.10;;;;;;8361796;28;20181;-69
2023/03/15 11:17:30;;;;;;;11.30;2.30;;;5.60;27.90;;;;;;8361733;28;20259;-69
2023/03/15 11:21:34;;;;;;;4.13;1.30;;;5.80;43.00;;;;;;8363255;28;20208;-69
2023/03/15 11:25:35;;;;;;;6.10;1.47;;;6.20;52.20;;;;;;8358447;28;20192;-69
2023/03/15 11:29:37;;;;;;;5.60;1.47;;;5.90;37.80;;;;;;8364001;28;20192;-69
2023/03/15 11:34:06;;;;;;;4.73;1.53;;;5.50;37.00;;;;;;8362067;28;20200;-68
2023/03/15 11:38:27;;;;;;;6.33;1.40;;;5.10;50.70;;;;;;8375422;28;20237;-69
2023/03/15 11:42:37;;;;;;;4.40;1.77;;;4.70;65.90;;;;;;8364499;28;20200;-69
2023/03/15 11:46:53;;;;;;;5.80;1.87;;;4.60;99.30;;;;;;8376892;28;20279;-68
2023/03/15 11:50:56;;;;;;;8.40;1.87;;;4.30;99.90;;;;;;8374681;28;20182;-69
2023/03/15 11:55:02;;;;;;;7.93;2.20;;;3.90;99.90;;;;;;8356027;28;21327;-69
2023/03/15 11:59:11;;;;;;;9.77;3.03;;;3.80;1.00;;;;;;8368069;28;20184;-70
2023/03/15 12:03:27;;;;;;;6.17;1.77;;;3.60;1.00;;;;;;8360269;28;20620;-69
2023/03/15 12:07:34;;;;;;;9.10;3.83;;;3.70;99.90;;;;;;8361441;28;20200;-68
2023/03/15 12:11:37;;;;;;;4.57;2.00;;;3.90;99.90;;;;;;8356136;28;20194;-69
2023/03/15 12:15:38;;;;;;;5.57;2.43;;;4.20;1.00;;;;;;8358224;28;20244;-70
2023/03/15 12:19:39;;;;;;;5.90;2.00;;;4.30;1.00;;;;;;8361231;28;20194;-68
2023/03/15 12:23:47;;;;;;;5.20;1.70;;;4.40;1.00;;;;;;8357979;28;20188;-69
2023/03/15 12:27:56;;;;;;;7.93;1.97;;;4.60;1.00;;;;;;8375559;28;20186;-69
2023/03/15 12:32:04;;;;;;;9.80;2.20;;;4.50;1.00;;;;;;8384959;28;20182;-69
2023/03/15 12:36:15;;;;;;;3.63;1.60;;;4.60;1.00;;;;;;8369210;28;20212;-70
2023/03/15 12:40:21;;;;;;;5.00;1.53;;;4.80;1.00;;;;;;8364166;28;20204;-70
2023/03/15 12:44:31;;;;;;;5.27;2.03;;;5.10;1.00;;;;;;8364817;28;20260;-69
2023/03/15 12:48:33;;;;;;;5.87;1.73;;;5.30;99.90;;;;;;8363019;28;20290;-69
2023/03/15 12:52:41;;;;;;;5.57;1.97;;;5.50;99.90;;;;;;8362459;28;20182;-69
2023/03/15 12:56:49;;;;;;;3.97;1.47;;;5.70;99.90;;;;;;8364622;28;20198;-69
2023/03/15 13:00:52;;;;;;;5.10;1.60;;;6.10;99.90;;;;;;8368266;28;20174;-69
2023/03/15 13:05:21;;;;;;;4.33;1.30;;;6.20;99.90;;;;;;8369335;28;20181;-68
2023/03/15 13:09:33;;;;;;;4.77;1.50;;;6.40;99.90;;;;;;8377887;28;20201;-69
2023/03/15 13:14:11;;;;;;;6.83;1.63;;;6.50;99.90;;;;;;8372336;28;20211;-69
2023/03/15 13:18:19;;;;;;;4.37;1.50;;;6.40;99.90;;;;;;8368402;28;20193;-68
2023/03/15 13:22:28;;;;;;;2.47;1.00;;;6.40;99.90;;;;;;8365981;28;20385;-69
2023/03/15 13:26:38;;;;;;;4.40;2.03;;;6.90;99.90;;;;;;8367188;28;20193;-69
2023/03/15 13:30:46;;;;;;;4.93;1.67;;;6.60;99.90;;;;;;8361936;28;20309;-70
2023/03/15 13:34:48;;;;;;;2.20;1.10;;;6.20;99.90;;;;;;8370797;28;20217;-69
2023/03/15 13:38:51;;;;;;;5.80;1.67;;;6.20;99.90;;;;;;8375868;28;20182;-69
2023/03/15 13:42:51;;;;;;;6.13;1.70;;;6.50;99.90;;;;;;8376048;28;20204;-69
2023/03/15 13:46:53;;;;;;;6.30;1.67;;;7.00;99.90;;;;;;8365104;28;20320;-69
2023/03/15 13:50:57;;;;;;;5.87;1.77;;;7.00;99.90;;;;;;8367895;28;20189;-69
2023/03/15 13:54:59;;;;;;;2.50;1.70;;;6.20;99.90;;;;;;8369437;28;20213;-69
2023/03/15 13:59:01;;;;;;;3.13;1.30;;;5.30;99.90;;;;;;8369466;28;20189;-70
2023/03/15 14:03:06;;;;;;;3.07;1.53;;;4.60;99.90;;;;;;8362300;28;20189;-69
2023/03/15 14:07:37;;;;;;;2.07;1.83;;;4.00;1.00;;;;;;8361732;28;20215;-69
2023/03/15 14:11:39;;;;;;;6.77;2.07;;;3.80;1.00;;;;;;8364102;28;20192;-69
2023/03/15 14:15:45;;;;;;;2.80;1.70;;;3.80;98.50;;;;;;8365481;28;20251;-69
2023/03/15 14:19:53;;;;;;;4.43;1.67;;;4.30;1.00;;;;;;8364319;28;20188;-68
2023/03/15 14:23:54;;;;;;;2.87;1.40;;;4.50;99.90;;;;;;8364345;28;20211;-68
2023/03/15 14:28:00;;;;;;;5.20;1.97;;;4.70;1.00;;;;;;8363131;28;20181;-68
2023/03/15 14:32:21;;;;;;;3.07;1.20;;;4.80;1.00;;;;;;8360372;28;20184;-67
2023/03/15 14:36:29;;;;;;;2.13;1.17;;;5.00;99.90;;;;;;8364897;28;20217;-69
2023/03/15 14:40:37;;;;;;;2.50;1.10;;;4.80;99.90;;;;;;8360641;28;20182;-69
2023/03/15 14:44:38;;;;;;;4.33;1.20;;;4.50;99.90;;;;;;8362551;28;20199;-70
2023/03/15 14:48:39;;;;;;;1.47;1.17;;;4.30;99.90;;;;;;8361249;28;20195;-68
2023/03/15 14:52:41;;;;;;;1.67;0.93;;;4.20;99.90;;;;;;8360226;28;20197;-70
2023/03/15 14:56:42;;;;;;;3.17;1.20;;;4.40;99.90;;;;;;8364027;28;20235;-70
2023/03/15 15:00:46;;;;;;;3.33;1.23;;;4.60;99.90;;;;;;8362086;28;20190;-70
2023/03/15 15:04:47;;;;;;;4.70;1.37;;;4.90;99.90;;;;;;8363726;28;20243;-68
2023/03/15 15:08:51;;;;;;;3.90;1.47;;;5.10;99.90;;;;;;8362384;28;20181;-71
2023/03/15 15:12:52;;;;;;;2.27;1.37;;;5.30;99.90;;;;;;8360253;28;20186;-69
2023/03/15 15:16:52;;;;;;;2.67;1.17;;;5.20;99.90;;;;;;8361977;28;20334;-67
2023/03/15 15:20:55;;;;;;;3.50;1.60;;;4.80;99.90;;;;;;8363775;28;20180;-67
2023/03/15 15:24:56;;;;;;;3.67;1.77;;;4.30;99.90;;;;;;8366234;28;20193;-69
2023/03/15 15:28:58;;;;;;;3.27;1.87;;;4.00;1.00;;;;;;8361919;28;20200;-69
2023/03/15 15:32:58;;;;;;;7.17;3.03;;;3.90;1.00;;;;;;8360308;28;20191;-70
2023/03/15 15:37:00;;;;;;;6.53;3.90;;;3.70;1.00;;;;;;8362069;28;20227;-69
2023/03/15 15:41:01;;;;;;;3.47;2.50;;;3.60;25.40;;;;;;8360384;28;20209;-68
2023/03/15 15:45:07;;;;;;;3.20;2.03;;;3.50;97.80;;;;;;8362663;28;20207;-69
2023/03/15 15:49:08;;;;;;;3.67;2.13;;;3.50;99.90;;;;;;8361683;28;20191;-70
2023/03/15 15:53:15;;;;;;;3.03;2.23;;;3.50;72.50;;;;;;8364656;28;20188;-70
2023/03/15 15:57:20;;;;;;;4.20;2.07;;;3.60;1.00;;;;;;8360099;28;20303;-70
2023/03/15 16:01:22;;;;;;;3.53;1.97;;;3.60;1.00;;;;;;8362610;28;20272;-70
2023/03/15 16:05:30;;;;;;;2.93;1.70;;;3.70;1.00;;;;;;8370029;28;20189;-69
2023/03/15 16:09:34;;;;;;;5.93;1.83;;;3.80;1.00;;;;;;8374035;28;20190;-70
2023/03/15 16:13:35;;;;;;;3.53;1.70;;;3.80;99.90;;;;;;8367024;28;20302;-69
2023/03/15 16:17:36;;;;;;;4.10;1.93;;;3.70;99.90;;;;;;8366736;28;20218;-70
2023/03/15 16:21:42;;;;;;;3.50;2.50;;;3.60;1.00;;;;;;8370810;28;20196;-70
2023/03/15 16:25:50;;;;;;;3.53;2.10;;;3.50;1.00;;;;;;8364488;28;20188;-70
2023/03/15 16:29:53;;;;;;;4.73;2.47;;;3.40;1.00;;;;;;8368361;28;20415;-70
2023/03/15 16:33:54;;;;;;;2.93;1.80;;;3.20;1.00;;;;;;8364011;28;20189;-70
2023/03/15 16:37:56;;;;;;;3.60;1.80;;;3.10;1.00;;;;;;8367293;28;20207;-70
2023/03/15 16:41:57;;;;;;;3.07;1.33;;;3.10;1.00;;;;;;8366355;28;20188;-70
2023/03/15 16:45:58;;;;;;;4.00;1.47;;;2.90;1.00;;;;;;8365348;28;20194;-70
2023/03/15 16:49:59;;;;;;;3.13;1.47;;;2.70;1.00;;;;;;8368837;28;20182;-70
2023/03/15 16:54:00;;;;;;;3.03;1.20;;;2.50;17.30;;;;;;8370882;28;20443;-70
2023/03/15 16:58:10;;;;;;;2.27;0.97;;;2.30;99.90;;;;;;8372373;28;20181;-70
2023/03/15 17:02:18;;;;;;;2.03;1.13;;;2.00;99.90;;;;;;8381013;28;20242;-70
2023/03/15 17:06:24;;;;;;;2.70;1.40;;;1.80;99.90;;;;;;8370772;28;20189;-70
2023/03/15 17:10:28;;;;;;;3.60;1.27;;;1.60;99.90;;;;;;8365599;28;20173;-70
2023/03/15 17:14:32;;;;;;;2.10;1.10;;;1.30;99.90;;;;;;8365884;28;20224;-71
2023/03/15 17:18:33;;;;;;;1.93;1.30;;;1.10;99.90;;;;;;8368665;28;20182;-70
2023/03/15 17:22:34;;;;;;;1.97;0.97;;;0.90;1.00;;;;;;8368348;28;20181;-68
2023/03/15 17:26:36;;;;;;;2.23;1.07;;;0.70;1.00;;;;;;8363485;28;20260;-64
2023/03/15 17:30:37;;;;;;;2.23;1.23;;;0.50;1.00;;;;;;8366903;28;20198;-65
2023/03/15 17:34:37;;;;;;;1.50;1.27;;;0.40;53.60;;;;;;8366750;28;20273;-64
2023/03/15 17:38:42;;;;;;;1.63;1.40;;;0.20;99.90;;;;;;8361676;28;20202;-64
2023/03/15 17:42:43;;;;;;;1.77;1.27;;;0.00;99.90;;;;;;8365137;28;20193;-63
2023/03/15 17:46:44;;;;;;;1.87;1.13;;;-0.20;99.90;;;;;;8364890;28;20228;-64
2023/03/15 17:50:44;;;;;;;2.10;1.50;;;-0.30;99.90;;;;;;8371100;28;20193;-64
2023/03/15 17:54:45;;;;;;;6.07;3.23;;;-0.50;1.00;;;;;;8366554;28;20209;-64
2023/03/15 17:58:46;;;;;;;9.20;5.33;;;-0.50;1.00;;;;;;8362671;28;20186;-64
2023/03/15 18:02:48;;;;;;;15.63;6.50;;;-0.60;99.90;;;;;;8366483;28;20263;-64
2023/03/15 18:06:49;;;;;;;9.10;4.70;;;-0.60;99.90;;;;;;8370144;28;20220;-64
2023/03/15 18:10:51;;;;;;;23.40;12.57;;;-0.70;1.00;;;;;;8365297;28;20196;-64
2023/03/15 18:14:51;;;;;;;10.40;6.07;;;-0.50;1.00;;;;;;8358625;28;20210;-63
2023/03/15 18:18:52;;;;;;;9.90;4.70;;;-0.40;99.90;;;;;;8362024;28;20256;-61
2023/03/15 18:22:53;;;;;;;6.07;4.57;;;-0.40;99.90;;;;;;8365456;28;20185;-62
2023/03/15 18:26:54;;;;;;;6.63;4.10;;;-0.50;1.00;;;;;;8367425;28;20310;-63
2023/03/15 18:30:55;;;;;;;6.43;3.60;;;-0.50;35.80;;;;;;8364465;28;20188;-63
2023/03/15 18:34:56;;;;;;;7.37;4.10;;;-0.60;94.00;;;;;;8363702;28;20213;-63
2023/03/15 18:38:57;;;;;;;6.17;4.63;;;-0.50;99.90;;;;;;8363377;28;20184;-63
2023/03/15 18:42:59;;;;;;;7.60;3.20;;;-0.40;99.90;;;;;;8365436;28;20201;-62
2023/03/15 18:47:00;;;;;;;6.20;3.33;;;-0.40;16.40;;;;;;8362428;28;20189;-65
2023/03/15 18:51:01;;;;;;;7.20;3.53;;;-0.40;99.90;;;;;;8363478;28;20287;-66
2023/03/15 18:55:06;;;;;;;6.87;3.23;;;-0.40;1.00;;;;;;8362145;28;20194;-64
2023/03/15 18:59:07;;;;;;;5.47;3.20;;;-0.40;99.90;;;;;;8367024;28;20688;-64
2023/03/15 19:03:08;;;;;;;3.30;2.63;;;-0.50;94.70;;;;;;8365062;28;20182;-64
2023/03/15 19:07:09;;;;;;;6.23;3.47;;;-0.60;1.00;;;;;;8363220;28;20185;-63
2023/03/15 19:11:10;;;;;;;6.07;3.73;;;-0.60;1.00;;;;;;8378391;28;20193;-64
2023/03/15 19:15:15;;;;;;;4.47;2.73;;;-0.60;99.90;;;;;;8364637;28;20209;-65
2023/03/15 19:19:16;;;;;;;5.73;3.43;;;-0.60;99.90;;;;;;8363327;28;20191;-63
2023/03/15 19:23:19;;;;;;;6.93;3.70;;;-0.60;1.00;;;;;;8363853;28;20528;-64
2023/03/15 19:27:19;;;;;;;6.87;3.53;;;-0.70;1.00;;;;;;8360554;28;20195;-64
2023/03/15 19:31:22;;;;;;;6.37;2.73;;;-0.80;99.90;;;;;;8363398;28;20312;-64
2023/03/15 19:35:23;;;;;;;4.47;3.23;;;-0.80;1.00;;;;;;8360365;28;20221;-63
2023/03/15 19:39:23;;;;;;;7.10;4.57;;;-0.90;1.00;;;;;;8360099;28;20186;-65
2023/03/15 19:43:25;;;;;;;4.93;3.07;;;-0.90;99.90;;;;;;8359965;28;20224;-63
2023/03/15 19:47:26;;;;;;;4.63;2.97;;;-1.00;1.00;;;;;;8363555;28;20281;-65
2023/03/15 19:51:26;;;;;;;7.47;4.10;;;-1.10;99.90;;;;;;8361534;28;20189;-64
2023/03/15 19:55:27;;;;;;;6.70;3.37;;;-1.10;99.90;;;;;;8358235;28;20211;-65
2023/03/15 19:59:28;;;;;;;6.37;4.53;;;-1.10;1.00;;;;;;8362394;28;20231;-65
2023/03/15 20:03:33;;;;;;;9.73;4.13;;;-1.00;99.90;;;;;;8364200;28;20198;-63
2023/03/15 20:07:36;;;;;;;6.67;4.13;;;-1.00;99.90;;;;;;8360791;28;20192;-63
2023/03/15 20:11:37;;;;;;;10.27;4.67;;;-0.90;99.90;;;;;;8358460;28;20274;-63
2023/03/15 20:15:37;;;;;;;6.90;4.20;;;-0.90;41.90;;;;;;8363889;28;20259;-65
2023/03/15 20:19:38;;;;;;;6.90;3.80;;;-0.90;1.00;;;;;;8358294;28;20189;-63
2023/03/15 20:23:40;;;;;;;8.00;3.67;;;-0.80;99.90;;;;;;8362774;28;20195;-65
2023/03/15 20:27:41;;;;;;;8.87;4.00;;;-0.90;99.90;;;;;;8365166;28;20213;-63
2023/03/15 20:31:42;;;;;;;7.07;3.90;;;-0.90;1.00;;;;;;8364879;28;20178;-64
2023/03/15 20:35:43;;;;;;;7.97;3.73;;;-0.90;1.00;;;;;;8362461;28;20296;-63
2023/03/15 20:39:44;;;;;;;9.07;4.50;;;-1.00;99.90;;;;;;8366599;28;20258;-63
2023/03/15 20:43:45;;;;;;;6.47;3.77;;;-1.10;99.90;;;;;;8362935;28;20198;-63
2023/03/15 20:47:46;;;;;;;8.03;4.23;;;-1.20;99.90;;;;;;8365915;28;20270;-66
2023/03/15 20:51:47;;;;;;;9.80;4.63;;;-1.30;99.90;;;;;;8361586;28;20198;-63
2023/03/15 20:55:48;;;;;;;12.47;4.60;;;-1.40;1.00;;;;;;8368177;28;20200;-62
2023/03/15 20:59:48;;;;;;;8.73;4.70;;;-1.40;99.90;;;;;;8373492;28;20184;-61
2023/03/15 21:03:53;;;;;;;9.63;4.50;;;-1.30;1.00;;;;;;8364137;28;20184;-61
2023/03/15 21:07:54;;;;;;;7.57;4.40;;;-1.30;90.50;;;;;;8367769;28;20184;-62
2023/03/15 21:11:55;;;;;;;8.90;4.67;;;-1.20;99.90;;;;;;8367324;28;20187;-61
2023/03/15 21:15:57;;;;;;;9.40;4.77;;;-1.10;3.90;;;;;;8366153;28;20223;-62
2023/03/15 21:19:59;;;;;;;10.83;4.60;;;-1.00;1.00;;;;;;8364880;28;20223;-61
2023/03/15 21:24:01;;;;;;;6.13;3.70;;;-1.00;39.30;;;;;;8363711;28;20190;-66